createdAt,value
2019-04-11T00:00:55.684Z,97.30
2019-04-11T00:03:21.908Z,97.90
2019-04-11T00:05:48.388Z,98.40
2019-04-11T00:08:14.674Z,98.30
2019-04-11T00:10:41.672Z,98.10
2019-04-11T00:13:17.130Z,98.10
2019-04-11T00:15:37.039Z,98.80
2019-04-11T00:18:04.099Z,98.90
2019-04-11T00:20:30.507Z,98.80
2019-04-11T00:22:57.653Z,98.50
2019-04-11T00:25:23.941Z,98.50
2019-04-11T00:27:51.011Z,98.40
2019-04-11T00:30:17.860Z,98.30
2019-04-11T00:32:45.443Z,98.10
2019-04-11T00:35:12.233Z,98.10
2019-04-11T00:37:38.497Z,97.90
2019-04-11T00:40:05.860Z,97.70
2019-04-11T00:42:32.192Z,97.20
2019-04-11T00:44:59.102Z,96.90
2019-04-11T00:47:25.509Z,96.80
2019-04-11T00:49:51.800Z,96.70
2019-04-11T00:52:18.435Z,96.50
2019-04-11T00:54:44.856Z,96.50
2019-04-11T00:57:11.198Z,96.20
2019-04-11T00:59:38.444Z,95.50
2019-04-11T01:02:05.194Z,95.30
2019-04-11T01:04:31.444Z,95.50
2019-04-11T01:06:58.577Z,95.40
2019-04-11T01:09:24.972Z,95.50
2019-04-11T01:11:52.186Z,95.40
2019-04-11T01:14:18.725Z,95.10
2019-04-11T01:16:50.635Z,94.80
2019-04-11T01:19:18.374Z,94.40
2019-04-11T01:21:45.078Z,94.10
2019-04-11T01:24:11.683Z,93.80
2019-04-11T01:26:38.220Z,93.50
2019-04-11T01:29:11.238Z,93.70
2019-04-11T01:31:39.957Z,93.60
2019-04-11T01:34:06.553Z,93.60
2019-04-11T01:36:33.257Z,93.40
2019-04-11T01:39:02.989Z,93.20
2019-04-11T01:41:29.281Z,93.10
2019-04-11T01:44:00.781Z,93.10
2019-04-11T01:46:24.386Z,92.90
2019-04-11T01:49:17.877Z,93.00
2019-04-11T01:51:44.220Z,92.90
2019-04-11T01:54:11.202Z,92.70
2019-04-11T01:56:39.081Z,92.90
2019-04-11T01:59:06.910Z,93.00
2019-04-11T02:01:35.402Z,93.00
2019-04-11T02:04:21.603Z,92.90
2019-04-11T02:06:48.104Z,93.00
2019-04-11T02:09:16.833Z,93.30
2019-04-11T02:11:43.243Z,93.30
2019-04-11T02:14:15.612Z,93.50
2019-04-11T02:16:37.983Z,93.30
2019-04-11T02:19:04.426Z,93.30
2019-04-11T02:21:30.678Z,93.40
2019-04-11T02:24:07.856Z,93.20
2019-04-11T02:26:38.835Z,93.00
2019-04-11T02:29:05.524Z,92.90
2019-04-11T02:31:33.428Z,93.50
2019-04-11T02:34:01.984Z,93.40
2019-04-11T02:36:30.079Z,93.60
2019-04-11T02:39:01.716Z,93.80
2019-04-11T02:41:27.371Z,94.00
2019-04-11T02:43:54.994Z,94.40
2019-04-11T02:46:31.877Z,94.60
2019-04-11T02:48:49.980Z,94.20
2019-04-11T02:51:18.273Z,94.40
2019-04-11T02:53:47.150Z,94.60
2019-04-11T02:56:15.030Z,94.70
2019-04-11T02:58:41.546Z,94.60
2019-04-11T03:01:11.791Z,94.80
2019-04-11T03:03:37.373Z,95.10
2019-04-11T03:06:04.507Z,95.30
2019-04-11T03:08:34.222Z,95.70
2019-04-11T03:10:59.633Z,95.20
2019-04-11T03:13:27.268Z,95.30
2019-04-11T03:16:07.213Z,95.90
2019-04-11T03:18:40.651Z,95.60
2019-04-11T03:20:56.858Z,95.70
2019-04-11T03:23:21.237Z,96.40
2019-04-11T03:25:49.086Z,96.20
2019-04-11T03:28:21.373Z,96.20
2019-04-11T03:31:04.289Z,96.10
2019-04-11T03:38:33.177Z,96.70
2019-04-11T03:40:57.704Z,96.60
2019-04-11T03:43:21.303Z,96.70
2019-04-11T03:45:52.539Z,96.90
2019-04-11T03:48:20.486Z,96.80
2019-04-11T03:50:34.809Z,96.90
2019-04-11T03:53:03.833Z,96.80
2019-04-11T03:55:31.928Z,96.80
2019-04-11T03:58:01.026Z,97.10
2019-04-11T04:00:33.545Z,97.80
2019-04-11T04:02:57.423Z,98.10
2019-04-11T04:05:26.141Z,97.80
2019-04-11T04:07:52.606Z,97.80
2019-04-11T04:10:21.194Z,98.10
2019-04-11T04:12:48.286Z,98.00
2019-04-11T04:15:48.888Z,98.00
2019-04-11T04:18:03.518Z,97.90
2019-04-11T04:20:39.508Z,98.10
2019-04-11T04:23:14.181Z,98.60
2019-04-11T04:25:42.881Z,99.40
2019-04-11T04:28:11.757Z,99.20
2019-04-11T04:30:41.060Z,99.30
2019-04-11T04:33:10.042Z,99.20
2019-04-11T04:35:36.368Z,99.80
2019-04-11T04:38:05.142Z,99.80
2019-04-11T04:40:49.568Z,99.90
2019-04-11T04:43:02.948Z,99.90
2019-04-11T04:45:30.247Z,99.90
2019-04-11T04:48:03.243Z,99.90
2019-04-11T04:50:26.720Z,99.90
2019-04-11T04:52:53.737Z,99.90
2019-04-11T04:55:21.705Z,99.90
2019-04-11T04:57:48.827Z,99.90
2019-04-11T05:00:15.231Z,99.90
2019-04-11T05:02:42.129Z,99.90
2019-04-11T05:05:11.316Z,99.90
2019-04-11T05:07:40.457Z,99.90
2019-04-11T05:10:07.295Z,99.90
2019-04-11T05:12:34.632Z,99.90
2019-04-11T05:15:01.483Z,99.90
2019-04-11T05:17:28.928Z,99.90
2019-04-11T05:19:56.399Z,99.90
2019-04-11T05:22:22.824Z,99.90
2019-04-11T05:24:49.138Z,99.90
2019-04-11T05:27:15.434Z,99.90
2019-04-11T05:29:41.805Z,99.90
2019-04-11T05:32:09.281Z,99.90
2019-04-11T05:34:35.792Z,99.90
2019-04-11T05:37:02.235Z,99.90
2019-04-11T05:39:28.737Z,99.90
2019-04-11T05:41:55.034Z,99.90
2019-04-11T05:44:21.327Z,99.90
2019-04-11T05:46:55.721Z,99.90
2019-04-11T05:49:24.194Z,99.90
2019-04-11T05:51:58.170Z,99.90
2019-04-11T05:54:26.002Z,99.90
2019-04-11T05:56:57.712Z,99.90
2019-04-11T05:59:24.465Z,99.90
2019-04-11T06:02:04.401Z,99.90
2019-04-11T06:04:30.251Z,99.90
2019-04-11T06:07:00.016Z,99.90
2019-04-11T06:09:38.174Z,99.90
2019-04-11T06:12:07.462Z,99.90
2019-04-11T06:14:37.620Z,99.90
2019-04-11T06:17:07.193Z,99.90
2019-04-11T06:22:21.344Z,99.90
2019-04-11T06:24:50.159Z,99.90
2019-04-11T06:27:18.540Z,99.90
2019-04-11T06:29:55.904Z,99.90
2019-04-11T06:32:40.792Z,99.90
2019-04-11T06:35:09.051Z,99.90
2019-04-11T06:37:38.112Z,99.90
2019-04-11T06:40:11.748Z,99.90
2019-04-11T06:42:39.900Z,99.90
2019-04-11T06:45:25.460Z,99.90
2019-04-11T06:47:53.736Z,99.90
2019-04-11T06:50:27.020Z,99.90
2019-04-11T06:52:53.426Z,99.90
2019-04-11T06:55:22.445Z,99.90
2019-04-11T06:58:09.215Z,99.90
2019-04-11T07:00:37.172Z,99.90
2019-04-11T07:03:06.727Z,99.90
2019-04-11T07:05:35.555Z,99.90
2019-04-11T07:08:03.714Z,99.90
2019-04-11T07:10:32.213Z,99.90
2019-04-11T07:13:03.683Z,99.90
2019-04-11T07:15:37.703Z,99.90
2019-04-11T07:18:22.681Z,99.90
2019-04-11T07:20:58.551Z,99.90
2019-04-11T07:23:44.705Z,99.90
2019-04-11T07:26:29.388Z,99.90
2019-04-11T07:29:15.860Z,99.90
2019-04-11T07:31:50.398Z,99.90
2019-04-11T07:34:31.456Z,99.90
2019-04-11T07:37:14.953Z,99.90
2019-04-11T07:40:00.804Z,99.90
2019-04-11T07:42:39.108Z,99.90
2019-04-11T07:45:17.380Z,99.90
2019-04-11T07:47:46.062Z,99.90
2019-04-11T07:50:15.290Z,99.90
2019-04-11T07:52:51.731Z,99.70
2019-04-11T07:55:21.027Z,98.30
2019-04-11T07:57:49.482Z,97.80
2019-04-11T08:00:17.824Z,98.50
2019-04-11T08:03:04.006Z,98.50
2019-04-11T08:05:36.702Z,98.60
2019-04-11T08:08:06.783Z,98.30
2019-04-11T08:10:35.550Z,97.90
2019-04-11T08:13:12.810Z,96.80
2019-04-11T08:15:57.908Z,96.80
2019-04-11T08:18:26.577Z,96.80
2019-04-11T08:21:12.131Z,96.50
2019-04-11T08:23:40.548Z,96.60
2019-04-11T08:26:26.249Z,96.80
2019-04-11T08:29:01.613Z,97.30
2019-04-11T08:31:40.605Z,97.20
2019-04-11T08:34:07.003Z,96.70
2019-04-11T08:36:38.138Z,96.80
2019-04-11T08:39:06.894Z,96.60
2019-04-11T08:41:35.908Z,95.70
2019-04-11T08:44:03.543Z,94.60
2019-04-11T08:46:33.052Z,94.00
2019-04-11T08:49:07.811Z,94.20
2019-04-11T08:51:35.734Z,93.60
2019-04-11T08:54:21.767Z,92.10
2019-04-11T08:56:49.427Z,91.80
2019-04-11T08:59:35.832Z,92.30
2019-04-11T09:02:02.976Z,93.40
2019-04-11T09:04:32.348Z,93.10
2019-04-11T09:06:59.473Z,93.10
2019-04-11T09:09:47.386Z,92.80
2019-04-11T09:12:14.166Z,92.60
2019-04-11T09:15:06.600Z,91.80
2019-04-11T09:17:35.047Z,92.00
2019-04-11T09:20:09.546Z,91.20
2019-04-11T09:22:37.837Z,90.70
2019-04-11T09:25:10.915Z,90.90
2019-04-11T09:27:48.981Z,87.80
2019-04-11T09:30:34.670Z,86.80
2019-04-11T09:33:20.751Z,81.00
2019-04-11T09:36:05.899Z,80.70
2019-04-11T09:38:49.264Z,80.50
2019-04-11T09:41:24.793Z,80.90
2019-04-11T09:43:53.101Z,79.60
2019-04-11T09:46:24.286Z,81.10
2019-04-11T09:49:09.152Z,81.30
2019-04-11T09:51:38.115Z,79.50
2019-04-11T09:54:21.714Z,81.40
2019-04-11T09:57:04.902Z,80.30
2019-04-11T09:59:49.971Z,75.00
2019-04-11T10:02:36.485Z,76.20
2019-04-11T10:05:05.568Z,75.90
2019-04-11T10:07:50.326Z,72.30
2019-04-11T10:10:28.951Z,71.30
2019-04-11T10:13:13.673Z,71.60
2019-04-11T10:15:51.542Z,73.90
2019-04-11T10:18:27.764Z,76.50
2019-04-11T10:20:52.940Z,78.30
2019-04-11T10:23:21.231Z,78.50
2019-04-11T10:25:48.136Z,76.30
2019-04-11T10:28:33.484Z,77.30
2019-04-11T10:31:08.568Z,76.30
2019-04-11T10:33:43.163Z,76.90
2019-04-11T10:36:29.347Z,74.80
2019-04-11T10:39:06.916Z,73.30
2019-04-11T10:41:35.197Z,73.10
2019-04-11T10:44:02.460Z,71.90
2019-04-11T10:46:44.483Z,71.50
2019-04-11T10:49:21.987Z,71.50
2019-04-11T10:51:52.382Z,69.70
2019-04-11T10:54:19.739Z,67.90
2019-04-11T10:57:05.624Z,68.70
2019-04-11T10:59:34.470Z,67.60
2019-04-11T11:02:10.705Z,68.60
2019-04-11T11:04:39.327Z,65.80
2019-04-11T11:07:09.699Z,67.50
2019-04-11T11:09:50.521Z,66.50
2019-04-11T11:12:21.694Z,67.70
2019-04-11T11:15:09.277Z,66.60
2019-04-11T11:18:24.054Z,66.80
2019-04-11T11:20:50.119Z,66.20
2019-04-11T11:23:18.526Z,66.70
2019-04-11T11:25:49.982Z,67.90
2019-04-11T11:28:17.920Z,67.60
2019-04-11T11:30:47.392Z,66.80
2019-04-11T11:33:14.111Z,68.80
2019-04-11T11:35:52.078Z,69.50
2019-04-11T11:38:21.856Z,68.70
2019-04-11T11:40:54.139Z,69.70
2019-04-11T11:43:23.176Z,71.50
2019-04-11T11:46:00.903Z,72.00
2019-04-11T11:48:33.324Z,72.00
2019-04-11T11:51:01.857Z,72.20
2019-04-11T11:53:42.794Z,72.50
2019-04-11T11:56:11.207Z,72.40
2019-04-11T11:58:39.585Z,72.50
2019-04-11T12:01:09.424Z,74.30
2019-04-11T12:03:40.296Z,74.20
2019-04-11T12:06:09.459Z,74.80
2019-04-11T12:08:39.111Z,75.70
2019-04-11T12:11:08.116Z,76.50
2019-04-11T12:13:53.708Z,76.80
2019-04-11T12:16:22.189Z,77.20
2019-04-11T12:18:54.967Z,77.80
2019-04-11T12:21:32.142Z,77.10
2019-04-11T12:24:06.416Z,76.50
2019-04-11T12:26:35.967Z,75.60
2019-04-11T12:29:14.297Z,76.80
2019-04-11T12:31:44.006Z,76.50
2019-04-11T12:34:30.461Z,77.80
2019-04-11T12:36:57.997Z,90.40
2019-04-11T12:39:44.668Z,77.00
2019-04-11T12:42:15.967Z,72.90
2019-04-11T12:45:00.768Z,73.70
2019-04-11T12:47:29.066Z,73.70
2019-04-11T12:50:14.835Z,73.30
2019-04-11T12:52:43.322Z,70.80
2019-04-11T12:55:17.620Z,72.10
2019-04-11T12:57:51.974Z,72.20
2019-04-11T13:00:20.548Z,73.20
2019-04-11T13:03:05.532Z,73.20
2019-04-11T13:05:36.439Z,71.10
2019-04-11T13:08:14.146Z,70.90
2019-04-11T13:10:42.491Z,68.90
2019-04-11T13:13:19.700Z,70.40
2019-04-11T13:15:51.113Z,71.40
2019-04-11T13:18:22.217Z,72.30
2019-04-11T13:20:56.398Z,72.50
2019-04-11T13:23:33.842Z,73.10
2019-04-11T13:26:14.270Z,74.70
2019-04-11T13:28:42.566Z,75.30
2019-04-11T13:31:25.769Z,77.00
2019-04-11T13:33:53.991Z,76.00
2019-04-11T13:36:39.052Z,76.90
2019-04-11T13:39:06.379Z,75.40
2019-04-11T13:41:34.806Z,75.50
2019-04-11T13:44:20.932Z,74.80
2019-04-11T13:46:54.287Z,74.20
2019-04-11T13:49:22.811Z,74.60
2019-04-11T13:51:51.194Z,73.60
2019-04-11T13:54:36.605Z,73.70
2019-04-11T13:57:21.545Z,74.30
2019-04-11T14:00:01.683Z,74.60
2019-04-11T14:02:50.657Z,75.60
2019-04-11T14:05:11.913Z,76.00
2019-04-11T14:07:38.360Z,76.40
2019-04-11T14:10:07.228Z,75.00
2019-04-11T14:12:35.908Z,75.40
2019-04-11T14:15:13.892Z,75.10
2019-04-11T14:17:45.102Z,75.50
2019-04-11T14:20:28.687Z,76.20
2019-04-11T14:23:04.640Z,76.90
2019-04-11T14:25:42.688Z,74.20
2019-04-11T14:28:11.287Z,72.50
2019-04-11T14:30:39.609Z,73.80
2019-04-11T14:33:06.220Z,73.30
2019-04-11T14:35:50.974Z,73.10
2019-04-11T14:38:19.210Z,73.60
2019-04-11T14:41:01.924Z,73.90
2019-04-11T14:43:30.116Z,73.90
2019-04-11T14:46:14.754Z,75.10
2019-04-11T14:48:42.981Z,74.60
2019-04-11T14:51:28.717Z,74.60
2019-04-11T14:54:12.138Z,74.90
2019-04-11T14:56:40.424Z,76.00
2019-04-11T14:59:14.667Z,77.20
2019-04-11T15:01:44.065Z,77.90
2019-04-11T15:04:24.255Z,78.30
2019-04-11T15:06:52.905Z,78.70
2019-04-11T15:09:24.149Z,79.50
2019-04-11T15:11:55.327Z,80.80
2019-04-11T15:14:41.579Z,80.80
2019-04-11T15:17:28.147Z,81.00
2019-04-11T15:20:14.736Z,82.20
2019-04-11T15:22:43.266Z,84.10
2019-04-11T15:25:14.463Z,85.70
2019-04-11T15:27:45.812Z,86.00
2019-04-11T15:30:17.362Z,86.60
2019-04-11T15:32:51.278Z,86.50
2019-04-11T15:35:17.580Z,85.80
2019-04-11T15:38:02.399Z,87.40
2019-04-11T15:40:28.891Z,87.40
2019-04-11T15:42:57.303Z,86.70
2019-04-11T15:45:40.813Z,86.50
2019-04-11T15:48:09.204Z,86.90
2019-04-11T15:51:05.818Z,87.40
2019-04-11T15:53:24.314Z,86.30
2019-04-11T15:56:11.001Z,85.10
2019-04-11T15:58:45.197Z,85.30
2019-04-11T16:01:13.592Z,87.20
2019-04-11T16:03:40.197Z,86.80
2019-04-11T16:06:24.933Z,86.60
2019-04-11T16:08:51.202Z,84.30
2019-04-11T16:11:28.323Z,82.10
2019-04-11T16:13:56.567Z,81.60
2019-04-11T16:16:25.076Z,82.50
2019-04-11T16:19:10.089Z,83.00
2019-04-11T16:21:40.978Z,81.50
2019-04-11T16:24:09.254Z,81.00
2019-04-11T16:26:46.555Z,81.30
2019-04-11T16:29:25.610Z,82.50
2019-04-11T16:31:53.800Z,82.50
2019-04-11T16:34:24.902Z,83.40
2019-04-11T16:36:51.826Z,92.70
2019-04-11T16:39:25.904Z,88.30
2019-04-11T16:41:53.916Z,99.90
2019-04-11T16:44:24.807Z,96.10
2019-04-11T16:47:04.775Z,92.90
2019-04-11T16:49:31.149Z,99.90
2019-04-11T16:51:57.601Z,93.70
2019-04-11T16:54:24.701Z,92.60
2019-04-11T16:56:51.270Z,92.20
2019-04-11T16:59:19.968Z,99.90
2019-04-11T17:01:45.901Z,94.70
2019-04-11T17:04:12.308Z,92.40
2019-04-11T17:06:40.472Z,92.80
2019-04-11T17:09:08.929Z,93.20
2019-04-11T17:11:37.373Z,92.70
2019-04-11T17:14:04.022Z,93.00
2019-04-11T17:16:31.024Z,93.70
2019-04-11T17:18:57.331Z,93.10
2019-04-11T17:21:23.781Z,93.80
2019-04-11T17:23:50.183Z,94.50
2019-04-11T17:26:16.554Z,94.20
2019-04-11T17:28:43.481Z,93.70
2019-04-11T17:31:10.093Z,94.20
2019-04-11T17:33:36.396Z,94.10
2019-04-11T17:36:03.057Z,94.10
2019-04-11T17:38:29.473Z,94.40
2019-04-11T17:40:55.815Z,94.30
2019-04-11T17:43:25.173Z,93.80
2019-04-11T17:45:56.895Z,94.20
2019-04-11T17:48:25.771Z,95.30
2019-04-11T17:50:51.730Z,94.00
2019-04-11T17:53:22.666Z,93.60
2019-04-11T17:55:51.980Z,93.20
2019-04-11T17:58:18.082Z,91.70
2019-04-11T18:00:46.788Z,91.10
2019-04-11T18:03:13.296Z,90.50
2019-04-11T18:05:39.821Z,91.00
2019-04-11T18:08:06.352Z,91.30
2019-04-11T18:10:32.784Z,92.00
2019-04-11T18:13:01.175Z,92.60
2019-04-11T18:15:28.808Z,92.10
2019-04-11T18:17:55.806Z,92.40
2019-04-11T18:20:22.747Z,92.90
2019-04-11T18:22:50.435Z,93.30
2019-04-11T18:25:20.749Z,93.90
2019-04-11T18:27:45.618Z,93.70
2019-04-11T18:30:12.621Z,93.40
2019-04-11T18:32:39.414Z,93.80
2019-04-11T18:35:06.263Z,93.70
2019-04-11T18:37:32.730Z,93.40
2019-04-11T18:39:59.132Z,93.50
2019-04-11T18:42:25.748Z,93.50
2019-04-11T18:44:52.061Z,93.20
2019-04-11T18:47:18.712Z,93.10
2019-04-11T18:49:45.174Z,93.10
2019-04-11T18:52:19.691Z,93.30
2019-04-11T18:54:39.894Z,92.80
2019-04-11T18:57:06.535Z,92.90
2019-04-11T18:59:33.984Z,92.70
2019-04-11T19:02:03.450Z,92.30
2019-04-11T19:04:32.585Z,91.80
2019-04-11T19:06:58.568Z,91.40
2019-04-11T19:09:25.512Z,91.70
2019-04-11T19:11:52.197Z,91.20
2019-04-11T19:14:18.807Z,90.90
2019-04-11T19:16:45.996Z,90.90
2019-04-11T19:19:13.406Z,90.80
2019-04-11T19:21:39.808Z,91.10
2019-04-11T19:24:09.062Z,91.90
2019-04-11T19:26:34.406Z,92.00
2019-04-11T19:29:01.248Z,92.00
2019-04-11T19:31:28.413Z,91.70
2019-04-11T19:33:54.885Z,92.60
2019-04-11T19:36:21.408Z,92.30
2019-04-11T19:38:47.852Z,92.20
2019-04-11T19:41:17.154Z,92.50
2019-04-11T19:43:42.250Z,92.80
2019-04-11T19:46:08.896Z,92.50
2019-04-11T19:48:35.501Z,92.80
2019-04-11T19:51:02.239Z,93.00
2019-04-11T19:53:32.747Z,93.20
2019-04-11T19:56:05.360Z,93.60
2019-04-11T19:58:32.489Z,93.80
2019-04-11T20:00:58.952Z,94.00
2019-04-11T20:03:25.335Z,94.00
2019-04-11T20:05:51.623Z,94.20
2019-04-11T20:08:18.298Z,93.90
2019-04-11T20:10:44.575Z,94.50
2019-04-11T20:13:11.076Z,94.50
2019-04-11T20:15:41.747Z,94.30
2019-04-11T20:18:05.652Z,94.60
2019-04-11T20:20:32.050Z,94.70
2019-04-11T20:22:59.493Z,94.80
2019-04-11T20:25:26.071Z,94.60
2019-04-11T20:27:52.471Z,94.60
2019-04-11T20:30:19.238Z,94.80
2019-04-11T20:32:45.614Z,94.80
2019-04-11T20:35:12.241Z,95.10
2019-04-11T20:37:44.399Z,95.60
2019-04-11T20:40:11.297Z,95.30
2019-04-11T20:42:37.642Z,96.00
2019-04-11T20:45:05.214Z,96.40
2019-04-11T20:47:31.493Z,96.70
2019-04-11T20:49:58.054Z,96.60
2019-04-11T20:52:24.338Z,96.90
2019-04-11T20:54:50.623Z,97.10
2019-04-11T20:57:25.655Z,96.70
2019-04-11T20:59:45.294Z,97.00
2019-04-11T21:02:11.610Z,96.90
2019-04-11T21:04:38.283Z,96.70
2019-04-11T21:07:04.545Z,96.70
2019-04-11T21:09:33.084Z,96.50
2019-04-11T21:11:59.064Z,96.90
2019-04-11T21:14:25.337Z,96.70
2019-04-11T21:16:51.680Z,96.80
2019-04-11T21:19:18.221Z,96.80
2019-04-11T21:21:44.541Z,97.10
2019-04-11T21:24:10.826Z,97.40
2019-04-11T21:26:37.256Z,97.70
2019-04-11T21:29:03.801Z,98.00
2019-04-11T21:31:31.241Z,97.80
2019-04-11T21:33:58.116Z,97.60
2019-04-11T21:36:27.019Z,97.50
2019-04-11T21:38:53.571Z,98.00
2019-04-11T21:41:19.796Z,98.00
2019-04-11T21:43:46.296Z,98.10
2019-04-11T21:46:12.590Z,97.90
2019-04-11T21:48:39.126Z,98.00
2019-04-11T21:51:05.541Z,98.50
2019-04-11T21:53:36.895Z,98.20
2019-04-11T21:56:00.034Z,98.00
2019-04-11T21:58:26.862Z,97.80
2019-04-11T22:01:02.609Z,98.10
2019-04-11T22:03:30.983Z,98.20
2019-04-11T22:05:59.644Z,98.30
2019-04-11T22:08:25.684Z,98.40
2019-04-11T22:10:52.106Z,98.50
2019-04-11T22:13:18.475Z,98.50
2019-04-11T22:15:46.920Z,98.60
2019-04-11T22:18:16.710Z,98.90
2019-04-11T22:20:41.438Z,98.90
2019-04-11T22:23:07.756Z,98.30
2019-04-11T22:25:34.094Z,98.30
2019-04-11T22:28:00.624Z,98.50
2019-04-11T22:30:26.870Z,98.50
2019-04-11T22:32:57.427Z,98.20
2019-04-11T22:35:23.280Z,98.40
2019-04-11T22:37:49.630Z,98.30
2019-04-11T22:40:16.027Z,98.50
2019-04-11T22:42:42.281Z,98.40
2019-04-11T22:45:09.192Z,99.00
2019-04-11T22:47:35.954Z,99.00
2019-04-11T22:50:04.134Z,98.90
2019-04-11T22:52:30.540Z,99.30
2019-04-11T22:54:56.842Z,99.40
2019-04-11T22:57:25.056Z,99.40
2019-04-11T22:59:51.304Z,99.80
2019-04-11T23:02:19.786Z,99.50
2019-04-11T23:04:47.068Z,99.80
2019-04-11T23:07:15.010Z,99.90
2019-04-11T23:09:42.447Z,99.90
2019-04-11T23:12:08.697Z,99.90
2019-04-11T23:14:35.130Z,99.90
2019-04-11T23:17:03.056Z,99.90
2019-04-11T23:19:29.333Z,99.90
2019-04-11T23:22:15.476Z,99.90
2019-04-11T23:24:41.768Z,99.90
2019-04-11T23:27:08.049Z,99.90
2019-04-11T23:29:34.400Z,99.90
2019-04-11T23:32:00.980Z,99.90
2019-04-11T23:34:27.252Z,99.90
2019-04-11T23:36:53.722Z,99.90
2019-04-11T23:39:22.659Z,99.90
2019-04-11T23:41:49.897Z,99.90
2019-04-11T23:44:20.354Z,99.90
2019-04-11T23:46:44.957Z,99.90
2019-04-11T23:49:11.222Z,99.90
2019-04-11T23:51:37.526Z,99.90
2019-04-11T23:54:03.861Z,99.90
2019-04-11T23:56:30.742Z,99.90
2019-04-11T23:59:01.613Z,99.90
